Time;durP1;ratioP1;P1;durP2;ratioP2;P2;SDS_P1;SDS_P2;PMS_P1;PMS_P2;Temp;Humidity;BMP_temperature;BMP_pressure;BME280_temperature;BME280_humidity;BME280_pressure;Samples;Min_cycle;Max_cycle;Signal;HPM_P1;HPM_P2
2023/04/15 00:01:26;;;;;;;5.53;1.93;;;;;;;-145.69;100.00;52408.75;5074740;28;20207;-81
2023/04/15 00:03:53;;;;;;;5.17;2.00;;;;;;;-145.69;100.00;52460.22;5074149;28;20199;-81
2023/04/15 00:06:20;;;;;;;6.43;1.70;;;;;;;-145.69;100.00;52414.69;5074779;28;20573;-82
2023/04/15 00:08:49;;;;;;;5.43;1.73;;;;;;;-145.69;100.00;52464.19;5075094;28;20205;-82
2023/04/15 00:11:17;;;;;;;9.47;1.87;;;;;;;-145.69;100.00;52426.56;5074482;28;20715;-80
2023/04/15 00:13:44;;;;;;;5.20;1.90;;;;;;;-145.69;100.00;52416.66;5074519;28;20213;-81
2023/04/15 00:16:12;;;;;;;5.50;1.80;;;;;;;-145.69;100.00;52408.75;5074457;28;20669;-81
2023/04/15 00:18:40;;;;;;;6.50;1.97;;;;;;;-145.69;100.00;52430.53;5074609;28;20195;-81
2023/04/15 00:21:06;;;;;;;9.67;1.87;;;;;;;-145.69;100.00;52428.53;5074447;28;20277;-81
2023/04/15 00:23:35;;;;;;;5.60;1.60;;;;;;;-145.69;100.00;52462.22;5074407;28;20661;-81
2023/04/15 00:26:01;;;;;;;8.63;1.90;;;;;;;-145.69;100.00;52474.09;5069852;28;20328;-81
2023/04/15 00:28:31;;;;;;;5.00;1.50;;;;;;;-145.69;100.00;52448.34;5074159;28;20241;-81
2023/04/15 00:30:57;;;;;;;6.33;1.63;;;;;;;-145.69;100.00;52438.44;5073772;28;20195;-81
2023/04/15 00:33:25;;;;;;;4.00;1.70;;;;;;;-145.69;100.00;52452.31;5074050;28;20549;-80
2023/04/15 00:35:53;;;;;;;6.87;2.07;;;;;;;-145.69;100.00;52448.34;5074190;28;20558;-81
2023/04/15 00:38:22;;;;;;;6.23;1.83;;;;;;;-145.69;100.00;52420.63;5074535;28;20199;-81
2023/04/15 00:40:52;;;;;;;4.53;1.57;;;;;;;-145.69;100.00;52424.59;5074114;28;20206;-81
2023/04/15 00:43:19;;;;;;;12.40;1.90;;;;;;;-145.69;100.00;52444.38;5073906;28;20226;-81
2023/04/15 00:45:45;;;;;;;4.93;1.60;;;;;;;-145.69;100.00;52412.69;5073935;28;20245;-81
2023/04/15 00:48:12;;;;;;;6.37;1.70;;;;;;;-145.69;100.00;52406.75;5073743;28;20664;-81
2023/04/15 00:50:39;;;;;;;2.57;1.63;;;;;;;-145.69;100.00;52474.09;5074039;28;20207;-81
2023/04/15 00:53:06;;;;;;;5.70;1.97;;;;;;;-145.69;100.00;52412.69;5073675;28;20206;-81
2023/04/15 00:55:35;;;;;;;4.23;1.50;;;;;;;-145.69;100.00;52448.34;5072666;28;20286;-81
2023/04/15 00:58:01;;;;;;;8.23;1.57;;;;;;;-145.69;100.00;52450.31;5073821;28;20241;-81
2023/04/15 01:00:28;;;;;;;6.83;1.77;;;;;;;-145.69;100.00;52426.56;5073959;28;20202;-80
2023/04/15 01:02:56;;;;;;;4.40;2.00;;;;;;;-145.69;100.00;52432.50;5073536;28;20553;-81
2023/04/15 01:05:26;;;;;;;4.97;1.70;;;;;;;-145.69;100.00;52491.91;5073456;28;20595;-82
2023/04/15 01:07:55;;;;;;;5.77;1.90;;;;;;;-145.69;100.00;52470.13;5073039;28;20593;-82
2023/04/15 01:10:23;;;;;;;11.50;2.20;;;;;;;-145.69;100.00;52464.19;5073225;28;20545;-82
2023/04/15 01:12:49;;;;;;;6.57;2.40;;;;;;;-145.69;100.00;52484.00;5073644;28;20206;-81
2023/04/15 01:15:18;;;;;;;10.03;2.17;;;;;;;-145.69;100.00;52448.34;5072302;28;20206;-82
2023/04/15 01:17:45;;;;;;;7.20;1.80;;;;;;;-145.69;100.00;52428.53;5073421;28;20198;-81
2023/04/15 01:20:18;;;;;;;4.80;1.83;;;;;;;-145.69;100.00;52464.19;5073286;28;20198;-81
2023/04/15 01:22:45;;;;;;;4.07;1.87;;;;;;;-145.69;100.00;52430.53;5073216;28;20294;-82
2023/04/15 01:25:16;;;;;;;3.73;2.00;;;;;;;-145.69;100.00;52460.22;5073068;28;20191;-82
2023/04/15 01:27:46;;;;;;;3.87;1.70;;;;;;;-145.69;100.00;52434.47;5073078;28;20230;-82
2023/04/15 01:30:13;;;;;;;11.83;2.00;;;;;;;-145.69;100.00;52436.47;5073201;28;20221;-81
2023/04/15 01:32:41;;;;;;;11.20;2.10;;;;;;;-145.69;100.00;52468.16;5073148;28;20198;-82
2023/04/15 01:35:08;;;;;;;6.43;2.17;;;;;;;-145.69;100.00;52428.53;5073078;28;20256;-82
2023/04/15 01:37:37;;;;;;;11.20;2.17;;;;;;;-145.69;100.00;52406.75;5072841;28;20302;-82
2023/04/15 01:40:04;;;;;;;9.03;2.47;;;;;;;-145.69;100.00;52446.38;5053244;28;20669;-81
2023/04/15 01:42:31;;;;;;;4.87;2.80;;;;;;;-145.69;100.00;52460.22;5072401;28;20202;-81
2023/04/15 01:44:59;;;;;;;7.80;2.17;;;;;;;-145.69;100.00;52460.22;5072918;28;20230;-81
2023/04/15 01:47:30;;;;;;;8.53;2.00;;;;;;;-145.69;100.00;52456.28;5073059;28;20257;-81
2023/04/15 01:49:58;;;;;;;6.93;2.30;;;;;;;-145.69;100.00;52434.47;5072631;28;20194;-81
2023/04/15 01:52:25;;;;;;;6.67;1.93;;;;;;;-145.69;100.00;52452.31;5073138;28;20206;-82
2023/04/15 01:54:57;;;;;;;5.63;2.17;;;;;;;-145.69;100.00;52444.38;5072768;28;20205;-81
2023/04/15 01:57:24;;;;;;;3.93;1.80;;;;;;;-145.69;100.00;52448.34;5072634;28;20676;-82
2023/04/15 01:59:50;;;;;;;4.70;2.00;;;;;;;-145.69;100.00;52474.09;5072628;28;20195;-80
2023/04/15 02:02:22;;;;;;;7.13;2.07;;;;;;;-145.69;100.00;52430.53;5072817;28;20680;-82
2023/04/15 02:04:54;;;;;;;14.50;2.03;;;;;;;-145.69;100.00;52450.31;5072781;28;20199;-81
2023/04/15 02:07:23;;;;;;;7.70;2.17;;;;;;;-145.69;100.00;52422.59;5073036;28;20222;-81
2023/04/15 02:09:53;;;;;;;5.13;1.70;;;;;;;-145.69;100.00;52452.31;5072726;28;20203;-82
2023/04/15 02:12:19;;;;;;;6.30;2.27;;;;;;;-145.69;100.00;52404.78;5072789;28;20209;-82
2023/04/15 02:14:46;;;;;;;8.73;2.47;;;;;;;-145.69;100.00;52468.16;5072614;28;20203;-81
2023/04/15 02:17:12;;;;;;;9.13;2.53;;;;;;;-145.69;100.00;52430.53;5072366;28;20198;-82
2023/04/15 02:19:42;;;;;;;5.87;2.33;;;;;;;-145.69;100.00;52452.31;5072126;28;20581;-81
2023/04/15 02:22:12;;;;;;;8.57;1.93;;;;;;;-145.69;100.00;52452.31;5057526;28;20204;-82
2023/04/15 02:24:38;;;;;;;3.13;1.70;;;;;;;-145.69;100.00;52434.47;5052801;28;20196;-82
2023/04/15 02:27:05;;;;;;;5.77;2.00;;;;;;;-145.69;100.00;52452.31;5061852;28;20225;-82
2023/04/15 02:29:34;;;;;;;5.73;2.33;;;;;;;-145.69;100.00;52484.00;5076591;28;20202;-82
2023/04/15 02:32:01;;;;;;;9.23;2.00;;;;;;;-145.69;100.00;52460.22;5076310;28;20202;-82
2023/04/15 02:34:27;;;;;;;12.70;2.60;;;;;;;-145.69;100.00;52430.53;5076464;28;20600;-82
2023/04/15 02:36:56;;;;;;;8.55;2.28;;;;;;;-145.69;100.00;52442.41;5074917;28;20470;-82
2023/04/15 02:39:23;;;;;;;9.10;2.33;;;;;;;-145.69;100.00;52458.25;5076463;28;20206;-83
2023/04/15 02:41:51;;;;;;;6.67;2.10;;;;;;;-145.69;100.00;52444.38;5076501;28;20206;-82
2023/04/15 02:44:23;;;;;;;6.60;2.00;;;;;;;-145.69;100.00;52487.97;5076181;28;20717;-81
2023/04/15 02:46:54;;;;;;;7.93;2.17;;;;;;;-145.69;100.00;52440.44;5076386;28;20226;-83
2023/04/15 02:49:21;;;;;;;9.53;2.20;;;;;;;-145.69;100.00;52448.34;5075968;28;20210;-82
2023/04/15 02:51:48;;;;;;;12.60;1.93;;;;;;;-145.69;100.00;52462.22;5075687;28;20284;-82
2023/04/15 02:54:16;;;;;;;7.77;2.10;;;;;;;-145.69;100.00;52472.13;5076555;28;20225;-82
2023/04/15 02:56:43;;;;;;;6.57;2.27;;;;;;;-145.69;100.00;52458.25;5075998;28;20683;-82
2023/04/15 02:59:10;;;;;;;8.90;2.33;;;;;;;-145.69;100.00;52426.56;5076097;28;20285;-82
2023/04/15 03:01:38;;;;;;;5.90;2.00;;;;;;;-145.69;100.00;52480.03;5076256;28;20201;-82
2023/04/15 03:04:06;;;;;;;4.87;1.73;;;;;;;-145.69;100.00;52462.22;5076045;28;20202;-83
2023/04/15 03:06:33;;;;;;;7.33;2.70;;;;;;;-145.69;100.00;52493.91;5075811;28;20222;-83
2023/04/15 03:09:00;;;;;;;5.00;1.80;;;;;;;-145.69;100.00;52493.91;5075105;28;20194;-82
2023/04/15 03:11:28;;;;;;;5.87;2.43;;;;;;;-145.69;100.00;52440.44;5075698;28;20257;-82
2023/04/15 03:13:55;;;;;;;5.07;1.70;;;;;;;-145.69;100.00;52503.81;5075553;28;20207;-83
2023/04/15 03:16:24;;;;;;;5.77;1.97;;;;;;;-145.69;100.00;52460.22;5075928;28;20230;-83
2023/04/15 03:18:53;;;;;;;6.00;2.10;;;;;;;-145.69;100.00;52468.16;5075962;28;20198;-82
2023/04/15 03:21:20;;;;;;;3.50;2.20;;;;;;;-145.69;100.00;52489.94;5075429;28;20206;-83
2023/04/15 03:23:50;;;;;;;12.77;2.70;;;;;;;-145.69;100.00;52468.16;5075518;28;20198;-82
2023/04/15 03:26:29;;;;;;;3.37;2.13;;;;;;;-145.69;100.00;52493.91;5076216;28;20285;-82
2023/04/15 03:28:56;;;;;;;10.97;2.33;;;;;;;-145.69;100.00;52450.31;5075379;28;20312;-81
2023/04/15 03:31:24;;;;;;;11.80;2.83;;;;;;;-145.69;100.00;52466.16;5075431;28;20202;-82
2023/04/15 03:33:51;;;;;;;9.67;2.30;;;;;;;-145.69;100.00;52456.28;5075269;28;20210;-81
2023/04/15 03:36:17;;;;;;;12.97;2.63;;;;;;;-145.69;100.00;52432.50;5075357;28;20700;-82
2023/04/15 03:38:48;;;;;;;7.50;2.20;;;;;;;-145.69;100.00;52456.28;5073608;28;20668;-83
2023/04/15 03:41:15;;;;;;;3.83;2.17;;;;;;;-145.69;100.00;52476.06;5074577;28;20203;-81
2023/04/15 03:43:42;;;;;;;5.87;1.93;;;;;;;-145.69;100.00;52491.91;5074177;28;20300;-81
2023/04/15 03:46:11;;;;;;;3.33;2.17;;;;;;;-145.69;100.00;52468.16;5074744;28;20202;-81
2023/04/15 03:48:40;;;;;;;10.77;2.40;;;;;;;-145.69;100.00;52452.31;5075069;28;20229;-81
2023/04/15 03:51:06;;;;;;;10.60;2.00;;;;;;;-145.69;100.00;52487.97;5073987;28;20190;-82
2023/04/15 03:53:35;;;;;;;6.40;2.40;;;;;;;-145.69;100.00;52452.31;5075124;28;20206;-82
2023/04/15 03:56:01;;;;;;;8.73;2.17;;;;;;;-145.69;100.00;52489.94;5075086;28;20198;-82
2023/04/15 03:58:28;;;;;;;12.23;2.27;;;;;;;-145.69;100.00;52472.13;5074442;28;20191;-82
2023/04/15 04:00:56;;;;;;;7.53;2.33;;;;;;;-145.69;100.00;52456.28;5074330;28;20191;-81
2023/04/15 04:03:22;;;;;;;9.03;2.30;;;;;;;-145.69;100.00;52460.22;5074912;28;20203;-82
2023/04/15 04:05:51;;;;;;;4.63;2.13;;;;;;;-145.69;100.00;52444.38;5073354;28;20234;-82
2023/04/15 04:08:21;;;;;;;8.20;2.40;;;;;;;-145.69;100.00;52464.19;5074675;28;20226;-81
2023/04/15 04:10:47;;;;;;;12.03;2.30;;;;;;;-145.69;100.00;52487.97;5074798;28;20206;-81
2023/04/15 04:13:14;;;;;;;8.83;2.63;;;;;;;-145.69;100.00;52448.34;5074474;28;20557;-82
2023/04/15 04:15:40;;;;;;;11.13;2.57;;;;;;;-145.69;100.00;52448.34;5074123;28;20198;-82
2023/04/15 04:18:08;;;;;;;7.60;2.40;;;;;;;-145.69;100.00;52491.91;5074340;28;20199;-82
2023/04/15 04:20:35;;;;;;;9.97;1.90;;;;;;;-145.69;100.00;52497.84;5074575;28;20202;-81
2023/04/15 04:23:05;;;;;;;6.83;2.20;;;;;;;-145.69;100.00;52474.09;5074040;28;20741;-81
2023/04/15 04:25:31;;;;;;;6.27;2.10;;;;;;;-145.69;100.00;52472.13;5067581;28;20231;-81
2023/04/15 04:27:58;;;;;;;6.17;2.23;;;;;;;-145.69;100.00;52478.06;5072784;28;20585;-80
2023/04/15 04:30:24;;;;;;;9.03;2.20;;;;;;;-145.69;100.00;52472.13;5073956;28;20722;-81
2023/04/15 04:32:51;;;;;;;4.87;2.00;;;;;;;-145.69;100.00;52495.88;5074245;28;20221;-81
2023/04/15 04:35:20;;;;;;;7.00;2.73;;;;;;;-145.69;100.00;52478.06;5074210;28;20195;-81
2023/04/15 04:37:49;;;;;;;10.83;2.53;;;;;;;-145.69;100.00;52470.13;5073781;28;20203;-82
2023/04/15 04:40:16;;;;;;;8.17;2.30;;;;;;;-145.69;100.00;52468.16;5073980;28;20191;-81
2023/04/15 04:42:42;;;;;;;7.40;2.70;;;;;;;-145.69;100.00;52442.41;5073695;28;20293;-81
2023/04/15 04:45:09;;;;;;;19.80;3.20;;;;;;;-145.69;100.00;52482.00;5073997;28;20202;-81
2023/04/15 04:47:36;;;;;;;9.53;2.63;;;;;;;-145.69;100.00;52468.16;5073168;28;20659;-81
2023/04/15 04:50:08;;;;;;;7.27;2.60;;;;;;;-145.69;100.00;52456.28;5072784;28;20202;-82
2023/04/15 04:52:35;;;;;;;8.90;2.90;;;;;;;-145.69;100.00;52505.78;5074062;28;20727;-81
2023/04/15 04:55:07;;;;;;;10.90;2.90;;;;;;;-145.69;100.00;52531.53;5073699;28;20615;-81
2023/04/15 04:57:38;;;;;;;8.40;2.63;;;;;;;-145.69;100.00;52489.94;5073613;28;20199;-81
2023/04/15 05:00:07;;;;;;;8.57;2.67;;;;;;;-145.69;100.00;52466.16;5073889;28;20195;-81
2023/04/15 05:02:36;;;;;;;7.90;2.50;;;;;;;-145.69;100.00;52476.06;5073463;28;20210;-82
2023/04/15 05:05:03;;;;;;;13.80;2.60;;;;;;;-145.69;100.00;52436.47;5073353;28;20203;-82
2023/04/15 05:07:29;;;;;;;6.00;2.83;;;;;;;-145.69;100.00;52466.16;5073198;28;20312;-82
2023/04/15 05:09:58;;;;;;;11.33;2.70;;;;;;;-145.69;100.00;52499.84;5073352;28;20202;-81
2023/04/15 05:12:25;;;;;;;4.13;2.33;;;;;;;-145.69;100.00;52476.06;5073875;28;20203;-81
2023/04/15 05:14:56;;;;;;;11.53;3.30;;;;;;;-145.69;100.00;52428.53;5073803;28;20545;-81
2023/04/15 05:17:23;;;;;;;11.67;2.57;;;;;;;-145.69;100.00;52482.00;5073172;28;20296;-81
2023/04/15 05:19:56;;;;;;;6.93;2.40;;;;;;;-145.69;100.00;52412.69;5073134;28;20285;-81
2023/04/15 05:22:22;;;;;;;7.33;2.27;;;;;;;-145.69;100.00;52424.59;5073270;28;20210;-80
2023/04/15 05:24:49;;;;;;;7.47;2.33;;;;;;;-145.69;100.00;52448.34;5073530;28;20289;-80
2023/04/15 05:27:19;;;;;;;7.43;2.40;;;;;;;-145.69;100.00;52456.28;5073153;28;20661;-81
2023/04/15 05:29:46;;;;;;;6.27;2.30;;;;;;;-145.69;100.00;52476.06;5073375;28;20229;-81
2023/04/15 05:32:12;;;;;;;10.10;2.57;;;;;;;-145.69;100.00;52472.13;5073224;28;20210;-82
2023/04/15 05:34:39;;;;;;;11.70;2.50;;;;;;;-145.69;100.00;52497.84;5073049;28;20256;-81
2023/04/15 05:37:05;;;;;;;7.30;2.40;;;;;;;-145.69;100.00;52452.31;5072709;28;20230;-81
2023/04/15 05:39:32;;;;;;;3.90;1.83;;;;;;;-145.69;100.00;52480.03;5073253;28;20203;-80
2023/04/15 05:42:07;;;;;;;8.93;1.90;;;;;;;-145.69;100.00;52446.38;5072672;28;20203;-81
2023/04/15 05:44:35;;;;;;;7.60;1.80;;;;;;;-145.69;100.00;52456.28;5072567;28;20241;-81
2023/04/15 05:47:02;;;;;;;9.90;1.87;;;;;;;-145.69;100.00;52474.09;5072915;28;20194;-81
2023/04/15 05:49:29;;;;;;;3.17;1.60;;;;;;;-145.69;100.00;52444.38;5072728;28;20206;-81
2023/04/15 05:51:58;;;;;;;12.20;2.00;;;;;;;-145.69;100.00;52499.84;5072895;28;20213;-80
2023/04/15 05:54:27;;;;;;;8.40;2.80;;;;;;;-145.69;100.00;52428.53;5072703;28;20202;-80
2023/04/15 05:56:53;;;;;;;11.80;2.30;;;;;;;-145.69;100.00;52470.13;5072881;28;20294;-80
2023/04/15 05:59:25;;;;;;;8.63;2.03;;;;;;;-145.69;100.00;52495.88;5072769;28;20845;-80
2023/04/15 06:01:53;;;;;;;10.63;1.93;;;;;;;-145.69;100.00;52444.38;5071712;28;20194;-80
2023/04/15 06:04:22;;;;;;;7.17;1.80;;;;;;;-145.69;100.00;52424.59;5072675;28;20671;-81
2023/04/15 06:06:49;;;;;;;5.27;1.83;;;;;;;-145.69;100.00;52462.22;5072666;28;20553;-81
2023/04/15 06:09:16;;;;;;;18.83;1.67;;;;;;;-145.69;100.00;52448.34;5072211;28;20689;-81
2023/04/15 06:11:45;;;;;;;4.03;1.73;;;;;;;-145.69;100.00;52432.50;5072582;28;20209;-80
2023/04/15 06:14:12;;;;;;;9.43;1.67;;;;;;;-145.69;100.00;52468.16;5072448;28;20202;-81
2023/04/15 06:16:38;;;;;;;6.63;2.10;;;;;;;-145.69;100.00;52428.53;5072229;28;20654;-81
2023/04/15 06:19:06;;;;;;;4.80;1.47;;;;;;;-145.69;100.00;52448.34;5072373;28;20199;-81
2023/04/15 06:21:35;;;;;;;5.37;1.53;;;;;;;-145.69;100.00;52452.31;5072508;28;20531;-81
2023/04/15 06:24:02;;;;;;;5.27;1.70;;;;;;;-145.69;100.00;52442.41;5069968;28;20600;-81
2023/04/15 06:26:30;;;;;;;4.80;1.60;;;;;;;-145.69;100.00;52420.63;5072780;28;20210;-81
2023/04/15 06:28:56;;;;;;;7.27;1.63;;;;;;;-145.69;100.00;52416.66;5071310;28;20225;-81
2023/04/15 06:31:25;;;;;;;4.37;1.60;;;;;;;-145.69;100.00;52446.38;5072827;28;20199;-80
2023/04/15 06:33:52;;;;;;;1.90;1.07;;;;;;;-145.69;100.00;52476.06;5072309;28;20624;-80
2023/04/15 06:36:22;;;;;;;4.53;1.70;;;;;;;-145.69;100.00;52432.50;5072620;28;20210;-81
2023/04/15 06:38:49;;;;;;;10.97;1.47;;;;;;;-145.69;100.00;52428.53;5071853;28;20202;-80
2023/04/15 06:41:15;;;;;;;9.57;1.60;;;;;;;-145.69;100.00;52432.50;5071790;28;20580;-81
2023/04/15 06:43:44;;;;;;;6.70;1.53;;;;;;;-145.69;100.00;52418.63;5071813;28;20234;-80
2023/04/15 06:46:11;;;;;;;4.30;1.50;;;;;;;-145.69;100.00;52440.44;5072239;28;20199;-80
2023/04/15 06:48:37;;;;;;;3.53;1.37;;;;;;;-145.69;100.00;52444.38;5072505;28;20261;-81
2023/04/15 06:51:04;;;;;;;5.30;1.40;;;;;;;-145.69;100.00;52418.63;5072438;28;20199;-81
2023/04/15 06:53:32;;;;;;;4.30;1.50;;;;;;;-145.69;100.00;52438.44;5071972;28;20195;-81
2023/04/15 06:55:59;;;;;;;8.53;2.07;;;;;;;-145.69;100.00;52408.75;5072095;28;20654;-82
2023/04/15 06:58:30;;;;;;;5.07;1.40;;;;;;;-145.69;100.00;52420.63;5072340;28;20381;-80
2023/04/15 07:00:58;;;;;;;4.37;1.50;;;;;;;-145.69;100.00;52446.38;5071910;28;20552;-80
2023/04/15 07:03:28;;;;;;;3.13;1.30;;;;;;;-145.69;100.00;52404.78;5071863;28;20202;-81
2023/04/15 07:05:57;;;;;;;4.70;1.60;;;;;;;-145.69;100.00;52363.19;5072047;28;20681;-82
2023/04/15 07:08:24;;;;;;;8.00;1.80;;;;;;;-145.69;100.00;52398.84;5071898;28;20233;-81
2023/04/15 07:11:04;;;;;;;4.33;1.50;;;;;;;-145.69;100.00;52424.59;5071706;28;20222;-81
2023/04/15 07:13:32;;;;;;;4.80;1.50;;;;;;;-145.69;100.00;52361.22;5074074;28;20194;-81
2023/04/15 07:15:58;;;;;;;4.87;1.37;;;;;;;-145.69;100.00;52383.00;5075912;28;20206;-81
2023/04/15 07:18:25;;;;;;;5.10;1.30;;;;;;;-145.69;100.00;52363.19;5075377;28;20217;-81
2023/04/15 07:20:55;;;;;;;6.77;1.70;;;;;;;-145.69;100.00;52371.13;5075559;28;20205;-81
2023/04/15 07:23:23;;;;;;;3.47;1.10;;;;;;;-145.69;100.00;52375.06;5075440;28;20206;-82
2023/04/15 07:25:52;;;;;;;7.40;1.40;;;;;;;-145.69;87.34;52396.84;5075798;28;20198;-81
2023/04/15 07:28:20;;;;;;;6.50;1.33;;;;;;;-145.69;93.48;52396.84;5075246;28;20793;-81
2023/04/15 07:30:46;;;;;;;3.47;1.20;;;;;;;-145.69;85.92;52386.97;5075156;28;20621;-81
2023/04/15 07:33:13;;;;;;;3.40;1.30;;;;;;;-145.69;74.58;52351.31;5075549;28;20199;-81
2023/04/15 07:35:40;;;;;;;3.67;1.10;;;;;;;-145.69;60.81;52381.00;5074948;28;20191;-81
2023/04/15 07:38:07;;;;;;;3.07;1.03;;;;;;;-145.69;69.18;52365.16;5074452;28;20649;-81
2023/04/15 07:40:36;;;;;;;6.07;1.20;;;;;;;-145.69;71.89;52349.31;5075356;28;20202;-81
2023/04/15 07:43:05;;;;;;;4.60;1.47;;;;;;;-145.69;54.36;52353.28;5075182;28;20638;-81
2023/04/15 07:45:33;;;;;;;4.32;1.20;;;;;;;-145.69;49.91;52373.09;5074898;28;20230;-82
2023/04/15 07:48:00;;;;;;;2.97;1.00;;;;;;;-145.69;51.09;52383.00;5075180;28;20214;-82
2023/04/15 07:50:28;;;;;;;6.90;1.30;;;;;;;-145.69;53.71;52383.00;5075250;28;20213;-82
2023/04/15 07:52:56;;;;;;;4.17;1.50;;;;;;;-145.69;54.63;52384.97;5074974;28;20286;-82
2023/04/15 07:55:22;;;;;;;7.33;1.27;;;;;;;-145.69;49.56;52345.38;5074697;28;20653;-81
2023/04/15 07:57:49;;;;;;;2.80;0.80;;;;;;;-145.69;45.25;52353.28;5075081;28;20206;-82
2023/04/15 08:00:17;;;;;;;6.43;0.93;;;;;;;-145.69;45.17;52349.31;5074771;28;20194;-81
2023/04/15 08:02:45;;;;;;;4.75;1.27;;;;;;;-145.69;45.80;52317.66;5074281;28;20449;-82
2023/04/15 08:05:13;;;;;;;3.83;1.00;;;;;;;-145.69;46.95;52297.84;5074925;28;20199;-82
2023/04/15 08:07:40;;;;;;;9.52;1.80;;;;;;;-145.69;58.18;52305.75;5074681;28;20195;-80
2023/04/15 08:10:08;;;;;;;4.80;1.48;;;;;;;-145.69;54.32;52321.59;5074322;28;20215;-80
2023/04/15 08:12:35;;;;;;;5.25;1.60;;;;;;;-145.69;53.09;52357.25;5074755;28;20632;-80
2023/04/15 08:15:02;;;;;;;3.85;1.23;;;;;;;-145.69;50.47;52349.31;5074487;28;20665;-81
2023/04/15 08:17:34;;;;;;;6.13;1.48;;;;;;;-145.69;51.97;52301.81;5063327;28;20203;-80
2023/04/15 08:20:04;;;;;;;8.60;2.53;;;;;;;-145.69;55.92;52319.63;5054594;28;20666;-80
2023/04/15 08:22:31;;;;;;;8.15;2.20;;;;;;;-145.69;53.96;52315.66;5054687;28;20245;-81
2023/04/15 08:24:59;;;;;;;7.50;2.05;;;;;;;-145.69;50.39;52321.59;5071260;28;20195;-82
2023/04/15 08:27:26;;;;;;;3.28;1.20;;;;;;;-145.69;46.79;52339.44;5074196;28;20199;-82
2023/04/15 08:29:55;;;;;;;5.65;1.48;;;;;;;-145.69;47.07;52309.72;5073472;28;20232;-81
2023/04/15 08:32:22;;;;;;;6.70;1.50;;;;;;;-145.69;49.36;52313.69;5074557;28;20199;-83
2023/04/15 08:34:49;;;;;;;7.27;1.70;;;;;;;-145.69;49.35;52347.34;5074018;28;20213;-82
2023/04/15 08:37:23;;;;;;;4.53;1.70;;;;;;;-145.69;51.83;52337.44;5074026;28;20297;-82
2023/04/15 08:39:51;;;;;;;2.90;1.30;;;;;;;-145.69;49.66;52329.53;5073505;28;20649;-82
2023/04/15 08:42:27;;;;;;;6.67;1.70;;;;;;;-145.69;49.18;52345.38;5073941;28;20199;-82
2023/04/15 08:44:55;;;;;;;5.13;1.50;;;;;;;-145.69;48.52;52321.59;5073521;28;20738;-82
2023/04/15 08:47:33;;;;;;;3.00;1.40;;;;;;;-145.69;52.32;52337.44;5073487;28;20194;-81
2023/04/15 08:50:04;;;;;;;3.00;1.37;;;;;;;-145.69;59.20;52361.22;5073146;28;20291;-80
2023/04/15 08:52:32;;;;;;;5.30;1.77;;;;;;;-145.69;57.84;52345.38;5073381;28;20229;-80
2023/04/15 08:55:03;;;;;;;3.57;1.40;;;;;;;-145.69;52.19;52347.34;5073961;28;20199;-82
2023/04/15 08:57:31;;;;;;;4.63;1.50;;;;;;;-145.69;59.02;52367.16;5073552;28;20293;-79
2023/04/15 08:59:58;;;;;;;6.17;1.40;;;;;;;-145.69;47.22;52329.53;5073692;28;20226;-78
2023/04/15 09:02:26;;;;;;;4.87;1.20;;;;;;;-145.69;48.77;52353.28;5073456;28;20201;-81
2023/04/15 09:04:53;;;;;;;8.40;1.55;;;;;;;-145.69;47.23;52301.81;5073454;28;20203;-82
2023/04/15 09:07:21;;;;;;;5.18;1.65;;;;;;;-145.69;44.53;52337.44;5072883;28;20213;-80
2023/04/15 09:09:53;;;;;;;5.57;1.83;;;;;;;-145.69;45.64;52313.69;5073651;28;20242;-80
2023/04/15 09:12:23;;;;;;;5.23;1.37;;;;;;;-145.69;44.99;52309.72;5073324;28;20202;-80
2023/04/15 09:14:55;;;;;;;12.38;1.23;;;;;;;-145.69;44.85;52315.66;5073451;28;20206;-78
2023/04/15 09:17:25;;;;;;;6.97;1.45;;;;;;;-145.69;43.09;52335.47;5073190;28;20205;-80
2023/04/15 09:20:11;;;;;;;6.63;1.55;;;;;;;-145.69;44.92;52305.75;5073053;28;20207;-80
2023/04/15 09:22:38;;;;;;;5.00;1.27;;;;;;;-145.69;44.90;52317.66;5074160;28;20209;-82
2023/04/15 09:25:26;;;;;;;5.35;1.08;;;;;;;-145.69;43.74;52282.00;5074002;28;20214;-83
2023/04/15 09:27:57;;;;;;;5.10;1.10;;;;;;;-145.69;42.31;52274.06;5073299;28;20213;-81
2023/04/15 09:30:27;;;;;;;4.20;1.30;;;;;;;-145.69;43.63;52293.88;5073947;28;20253;-84
2023/04/15 09:33:06;;;;;;;3.83;1.40;;;;;;;-145.69;41.20;52291.91;5074514;28;20198;-80
2023/04/15 09:35:34;;;;;;;3.80;1.25;;;;;;;-145.69;41.33;52301.81;5073960;28;20294;-80
2023/04/15 09:38:04;;;;;;;5.68;0.98;;;;;;;-145.69;41.36;52299.81;5074319;28;20214;-81
2023/04/15 09:40:37;;;;;;;4.85;1.20;;;;;;;-145.69;40.34;52258.22;5076203;28;20673;-83
2023/04/15 09:43:12;;;;;;;3.72;1.30;;;;;;;-145.69;41.65;52282.00;5073683;28;20234;-83
2023/04/15 09:45:46;;;;;;;4.05;1.10;;;;;;;-145.69;40.57;52313.69;5073283;28;20213;-82
2023/04/15 09:48:19;;;;;;;7.30;1.08;;;;;;;-145.69;41.15;52272.09;5073177;28;20198;-83
2023/04/15 09:50:47;;;;;;;3.38;1.10;;;;;;;-145.69;39.73;52289.91;5073062;28;20229;-87
2023/04/15 09:53:19;;;;;;;4.53;1.33;;;;;;;-145.69;40.05;52305.75;5073342;28;20230;-84
2023/04/15 09:55:55;;;;;;;5.97;1.45;;;;;;;-145.69;39.93;52246.34;5073654;28;20252;-85
2023/04/15 09:58:23;;;;;;;6.75;1.67;;;;;;;-145.69;39.17;52295.84;5073224;28;20281;-82
2023/04/15 10:00:51;;;;;;;4.80;1.20;;;;;;;-145.69;41.11;52280.00;5072977;28;20195;-81
2023/04/15 10:03:20;;;;;;;5.25;1.08;;;;;;;-145.69;39.53;52293.88;5072780;28;20198;-83
2023/04/15 10:05:49;;;;;;;7.38;1.70;;;;;;;-145.69;39.06;52256.25;5072702;28;20216;-83
2023/04/15 10:08:21;;;;;;;8.88;1.58;;;;;;;-145.69;38.28;52285.97;5072732;28;20194;-83
2023/04/15 10:11:00;;;;;;;6.15;1.13;;;;;;;-145.69;38.47;52250.31;5072598;28;20637;-82
2023/04/15 10:13:38;;;;;;;2.42;1.20;;;;;;;-145.69;38.85;52254.28;5072762;28;20672;-84
2023/04/15 10:16:10;;;;;;;3.72;1.17;;;;;;;-145.69;39.19;52283.97;5072542;28;20199;-83
2023/04/15 10:18:41;;;;;;;5.32;0.93;;;;;;;-145.69;39.60;52270.13;5072609;28;20562;-83
2023/04/15 10:21:08;;;;;;;4.18;1.02;;;;;;;-145.69;39.29;52293.88;5072671;28;20191;-83
2023/04/15 10:23:35;;;;;;;6.57;1.33;;;;;;;-145.69;37.70;52293.88;5073381;28;20205;-84
2023/04/15 10:26:04;;;;;;;4.28;1.08;;;;;;;-145.69;37.86;52285.97;5061635;28;20214;-82
2023/04/15 10:28:30;;;;;;;2.28;1.00;;;;;;;-145.69;37.83;52285.97;5072676;28;20195;-83
2023/04/15 10:30:59;;;;;;;2.97;1.00;;;;;;;-145.69;40.36;52270.13;5072978;28;20226;-83
2023/04/15 10:33:27;;;;;;;8.00;1.63;;;;;;;-145.69;39.19;52282.00;5072069;28;20678;-83
2023/04/15 10:35:55;;;;;;;6.18;1.25;;;;;;;-145.69;37.93;52264.16;5072353;28;20207;-83
2023/04/15 10:38:32;;;;;;;4.32;1.08;;;;;;;-145.69;38.83;52274.06;5071752;28;20441;-82
2023/04/15 10:41:14;;;;;;;8.90;1.23;;;;;;;-145.69;38.45;52278.03;5072259;28;20612;-82
2023/04/15 10:43:46;;;;;;;4.15;1.25;;;;;;;-145.69;38.56;52258.22;5072190;28;20230;-83
2023/04/15 10:46:13;;;;;;;2.30;0.93;;;;;;;-145.69;39.85;52282.00;5072675;28;20214;-82
2023/04/15 10:48:47;;;;;;;6.00;1.67;;;;;;;-145.69;38.89;52270.13;5073369;28;20442;-83
2023/04/15 10:51:21;;;;;;;5.90;1.17;;;;;;;-145.69;38.84;52262.19;5076740;28;20198;-83
2023/04/15 10:53:50;;;;;;;5.57;1.20;;;;;;;-145.69;38.09;52274.06;5077977;28;20194;-81
2023/04/15 10:56:20;;;;;;;6.10;1.40;;;;;;;-145.69;39.44;52264.16;5076834;28;20199;-83
2023/04/15 10:58:52;;;;;;;2.75;1.15;;;;;;;-145.69;38.65;52283.97;5077061;28;20936;-83
2023/04/15 11:01:22;;;;;;;5.65;1.20;;;;;;;-145.69;38.63;52280.00;5075824;28;20202;-82
2023/04/15 11:03:49;;;;;;;4.25;1.27;;;;;;;-145.69;39.57;52283.97;5077525;28;20222;-85
2023/04/15 11:06:16;;;;;;;6.65;1.60;;;;;;;-145.69;39.03;52293.88;5076705;28;20206;-84
2023/04/15 11:08:58;;;;;;;2.63;1.30;;;;;;;-145.69;40.83;52248.34;5077092;28;20737;-83
2023/04/15 11:12:09;;;;;;;5.80;1.38;;;;;;;-145.69;40.43;52260.22;5077329;28;20211;-84
2023/04/15 11:14:43;;;;;;;2.58;1.00;;;;;;;-145.69;38.75;52299.81;5076748;28;20260;-85
2023/04/15 11:17:09;;;;;;;6.32;1.40;;;;;;;-145.69;39.40;52270.13;5075406;28;20195;-84
2023/04/15 11:19:37;;;;;;;4.25;1.20;;;;;;;-145.69;40.80;52272.09;5076447;28;20191;-84